Terminal Aerodrome Forecast
Issued by NWS

Home | Current Version | Previous Version | Text Only | Print | Product List | Glossary On
Versions: 1 2 3 4 5 6 7 8 9 10 11 12 13 14 15 16 17
388
FTUS44 KEWX 241139
TAFSSF
TAF
KSSF 241139Z 2412/2512 13003KT P6SM SCT012
      TEMPO 2412/2414 BKN012
     FM241400 16007KT P6SM SCT040 SCT250
     FM242000 13012KT P6SM SCT060 SCT250
     FM251000 11003KT P6SM BKN012=

USA.gov is the U.S. government's official web portal to all federal, state and local government web resources and services.